Terminal Aerodrome Forecast
Issued by NWS

Home | Current Version | Previous Version | Graphics & Text | Print | Product List | Glossary On
Versions: 1 2 3 4 5 6 7 8 9 10 11 12 13 14 15 16 17 18 19 20 21 22
000
FTUS43 KFGF 180100 AAA
TAFBJI
TAF AMD
KBJI 180149Z 1802/1824 13008KT P6SM OVC005
      TEMPO 1802/1804 4SM BR
     FM180900 VRB05KT P6SM VCTS BKN012CB
     FM181500 17006KT P6SM BKN040
     FM181900 VRB06KT P6SM VCTS BKN040CB=

USA.gov is the U.S. government's official web portal to all federal, state and local government web resources and services.